sensor_id;sensor_type;location;lat;lon;timestamp;temperature;humidity
37158;DHT22;23050;51.776;22.638;2023-04-03T00:02:02;2.80;99.90
37158;DHT22;23050;51.776;22.638;2023-04-03T00:04:28;2.80;99.90
37158;DHT22;23050;51.776;22.638;2023-04-03T00:06:53;2.80;99.90
37158;DHT22;23050;51.776;22.638;2023-04-03T00:09:18;2.80;99.90
37158;DHT22;23050;51.776;22.638;2023-04-03T00:11:45;2.80;99.90
37158;DHT22;23050;51.776;22.638;2023-04-03T00:14:10;2.80;99.90
37158;DHT22;23050;51.776;22.638;2023-04-03T00:16:36;2.80;99.90
37158;DHT22;23050;51.776;22.638;2023-04-03T00:19:01;2.80;99.90
37158;DHT22;23050;51.776;22.638;2023-04-03T00:21:27;2.80;99.90
37158;DHT22;23050;51.776;22.638;2023-04-03T00:23:52;2.70;99.90
37158;DHT22;23050;51.776;22.638;2023-04-03T00:26:17;2.70;99.90
37158;DHT22;23050;51.776;22.638;2023-04-03T00:28:43;2.70;99.90
37158;DHT22;23050;51.776;22.638;2023-04-03T00:31:08;2.70;99.90
37158;DHT22;23050;51.776;22.638;2023-04-03T00:33:34;2.60;99.90
37158;DHT22;23050;51.776;22.638;2023-04-03T00:36:08;2.70;99.90
37158;DHT22;23050;51.776;22.638;2023-04-03T00:38:34;2.50;99.90
37158;DHT22;23050;51.776;22.638;2023-04-03T00:40:59;2.50;99.90
37158;DHT22;23050;51.776;22.638;2023-04-03T00:43:25;2.50;99.90
37158;DHT22;23050;51.776;22.638;2023-04-03T00:45:52;2.40;99.90
37158;DHT22;23050;51.776;22.638;2023-04-03T00:48:20;2.40;99.90
37158;DHT22;23050;51.776;22.638;2023-04-03T00:50:46;2.40;99.90
37158;DHT22;23050;51.776;22.638;2023-04-03T00:53:14;2.30;99.90
37158;DHT22;23050;51.776;22.638;2023-04-03T00:55:41;2.30;99.90
37158;DHT22;23050;51.776;22.638;2023-04-03T00:58:06;2.30;99.90
37158;DHT22;23050;51.776;22.638;2023-04-03T01:00:32;2.30;99.90
37158;DHT22;23050;51.776;22.638;2023-04-03T01:02:58;2.30;99.90
37158;DHT22;23050;51.776;22.638;2023-04-03T01:05:23;2.20;99.90
37158;DHT22;23050;51.776;22.638;2023-04-03T01:07:49;2.20;99.90
37158;DHT22;23050;51.776;22.638;2023-04-03T01:10:16;2.20;99.90
37158;DHT22;23050;51.776;22.638;2023-04-03T01:12:43;2.20;99.90
37158;DHT22;23050;51.776;22.638;2023-04-03T01:15:13;2.30;99.90
37158;DHT22;23050;51.776;22.638;2023-04-03T01:17:52;2.30;99.90
37158;DHT22;23050;51.776;22.638;2023-04-03T01:28:08;2.30;99.90
37158;DHT22;23050;51.776;22.638;2023-04-03T01:30:36;2.30;99.90
37158;DHT22;23050;51.776;22.638;2023-04-03T01:33:03;2.40;99.90
37158;DHT22;23050;51.776;22.638;2023-04-03T01:35:29;2.30;99.90
37158;DHT22;23050;51.776;22.638;2023-04-03T01:37:54;2.30;99.90
37158;DHT22;23050;51.776;22.638;2023-04-03T01:40:20;2.30;99.90
37158;DHT22;23050;51.776;22.638;2023-04-03T01:42:45;2.30;99.90
37158;DHT22;23050;51.776;22.638;2023-04-03T01:45:11;2.30;99.90
37158;DHT22;23050;51.776;22.638;2023-04-03T01:47:36;2.40;99.90
37158;DHT22;23050;51.776;22.638;2023-04-03T01:50:02;2.30;99.90
37158;DHT22;23050;51.776;22.638;2023-04-03T01:52:27;2.40;99.90
37158;DHT22;23050;51.776;22.638;2023-04-03T01:54:53;2.40;99.90
37158;DHT22;23050;51.776;22.638;2023-04-03T01:57:18;2.40;99.90
37158;DHT22;23050;51.776;22.638;2023-04-03T01:59:44;2.30;99.90
37158;DHT22;23050;51.776;22.638;2023-04-03T02:02:10;2.30;99.90
37158;DHT22;23050;51.776;22.638;2023-04-03T02:04:37;2.30;99.90
37158;DHT22;23050;51.776;22.638;2023-04-03T02:07:03;2.40;99.90
37158;DHT22;23050;51.776;22.638;2023-04-03T02:09:29;2.20;99.90
37158;DHT22;23050;51.776;22.638;2023-04-03T02:11:54;2.20;99.90
37158;DHT22;23050;51.776;22.638;2023-04-03T02:14:20;2.20;99.90
37158;DHT22;23050;51.776;22.638;2023-04-03T02:16:47;2.10;99.90
37158;DHT22;23050;51.776;22.638;2023-04-03T02:19:12;2.10;99.90
37158;DHT22;23050;51.776;22.638;2023-04-03T02:21:38;2.10;99.90
37158;DHT22;23050;51.776;22.638;2023-04-03T02:24:03;2.00;99.90
37158;DHT22;23050;51.776;22.638;2023-04-03T02:26:29;1.90;99.90
37158;DHT22;23050;51.776;22.638;2023-04-03T02:28:54;1.80;99.90
37158;DHT22;23050;51.776;22.638;2023-04-03T02:31:20;1.90;99.90
37158;DHT22;23050;51.776;22.638;2023-04-03T02:33:46;1.80;99.90
37158;DHT22;23050;51.776;22.638;2023-04-03T02:36:11;1.80;99.90
37158;DHT22;23050;51.776;22.638;2023-04-03T02:38:36;1.80;99.90
37158;DHT22;23050;51.776;22.638;2023-04-03T02:41:06;1.70;99.90
37158;DHT22;23050;51.776;22.638;2023-04-03T02:43:32;1.70;99.90
37158;DHT22;23050;51.776;22.638;2023-04-03T02:45:57;1.70;99.90
37158;DHT22;23050;51.776;22.638;2023-04-03T02:48:23;1.60;99.90
37158;DHT22;23050;51.776;22.638;2023-04-03T02:50:48;1.60;99.90
37158;DHT22;23050;51.776;22.638;2023-04-03T02:53:14;1.60;99.90
37158;DHT22;23050;51.776;22.638;2023-04-03T02:55:40;1.50;99.90
37158;DHT22;23050;51.776;22.638;2023-04-03T02:58:06;1.50;99.90
37158;DHT22;23050;51.776;22.638;2023-04-03T03:00:31;1.50;99.90
37158;DHT22;23050;51.776;22.638;2023-04-03T03:02:57;1.50;99.90
37158;DHT22;23050;51.776;22.638;2023-04-03T03:05:22;1.40;99.90
37158;DHT22;23050;51.776;22.638;2023-04-03T03:07:48;1.40;99.90
37158;DHT22;23050;51.776;22.638;2023-04-03T03:10:13;1.40;99.90
37158;DHT22;23050;51.776;22.638;2023-04-03T03:12:39;1.40;99.90
37158;DHT22;23050;51.776;22.638;2023-04-03T03:15:06;1.40;99.90
37158;DHT22;23050;51.776;22.638;2023-04-03T03:17:31;1.40;99.90
37158;DHT22;23050;51.776;22.638;2023-04-03T03:19:57;1.30;99.90
37158;DHT22;23050;51.776;22.638;2023-04-03T03:22:22;1.30;99.90
37158;DHT22;23050;51.776;22.638;2023-04-03T03:24:48;1.20;99.70
37158;DHT22;23050;51.776;22.638;2023-04-03T03:27:13;1.20;99.90
37158;DHT22;23050;51.776;22.638;2023-04-03T03:29:39;1.20;99.90
37158;DHT22;23050;51.776;22.638;2023-04-03T03:32:04;1.20;99.90
37158;DHT22;23050;51.776;22.638;2023-04-03T03:34:30;1.10;99.90
37158;DHT22;23050;51.776;22.638;2023-04-03T03:36:55;1.10;99.40
37158;DHT22;23050;51.776;22.638;2023-04-03T03:39:21;1.10;98.90
37158;DHT22;23050;51.776;22.638;2023-04-03T03:41:46;1.00;97.90
37158;DHT22;23050;51.776;22.638;2023-04-03T03:44:12;1.00;97.90
37158;DHT22;23050;51.776;22.638;2023-04-03T03:46:38;1.00;97.30
37158;DHT22;23050;51.776;22.638;2023-04-03T03:49:03;1.00;97.00
37158;DHT22;23050;51.776;22.638;2023-04-03T03:51:29;1.00;97.20
37158;DHT22;23050;51.776;22.638;2023-04-03T03:53:54;0.90;95.90
37158;DHT22;23050;51.776;22.638;2023-04-03T03:56:20;0.90;95.90
37158;DHT22;23050;51.776;22.638;2023-04-03T03:58:45;0.90;93.30
37158;DHT22;23050;51.776;22.638;2023-04-03T04:01:11;0.90;89.30
37158;DHT22;23050;51.776;22.638;2023-04-03T04:03:36;0.80;90.00
37158;DHT22;23050;51.776;22.638;2023-04-03T04:06:02;0.80;86.20
37158;DHT22;23050;51.776;22.638;2023-04-03T04:08:28;0.80;87.00
37158;DHT22;23050;51.776;22.638;2023-04-03T04:10:53;0.70;77.50
37158;DHT22;23050;51.776;22.638;2023-04-03T04:13:19;0.70;72.10
37158;DHT22;23050;51.776;22.638;2023-04-03T04:15:44;0.70;76.70
37158;DHT22;23050;51.776;22.638;2023-04-03T04:18:09;0.70;75.20
37158;DHT22;23050;51.776;22.638;2023-04-03T04:20:35;0.60;69.70
37158;DHT22;23050;51.776;22.638;2023-04-03T04:23:00;0.60;67.20
37158;DHT22;23050;51.776;22.638;2023-04-03T04:25:26;0.60;67.80
37158;DHT22;23050;51.776;22.638;2023-04-03T04:27:51;0.60;69.80
37158;DHT22;23050;51.776;22.638;2023-04-03T04:30:17;0.50;70.60
37158;DHT22;23050;51.776;22.638;2023-04-03T04:32:42;0.50;66.00
37158;DHT22;23050;51.776;22.638;2023-04-03T04:35:08;0.60;69.20
37158;DHT22;23050;51.776;22.638;2023-04-03T04:37:33;0.60;71.30
37158;DHT22;23050;51.776;22.638;2023-04-03T04:39:59;0.60;62.10
37158;DHT22;23050;51.776;22.638;2023-04-03T04:42:24;0.70;58.00
37158;DHT22;23050;51.776;22.638;2023-04-03T04:44:50;0.70;53.20
37158;DHT22;23050;51.776;22.638;2023-04-03T04:47:15;0.70;56.80
37158;DHT22;23050;51.776;22.638;2023-04-03T04:49:41;0.70;52.90
37158;DHT22;23050;51.776;22.638;2023-04-03T04:52:07;0.70;50.80
37158;DHT22;23050;51.776;22.638;2023-04-03T04:54:32;0.80;47.50
37158;DHT22;23050;51.776;22.638;2023-04-03T04:56:58;0.80;43.80
37158;DHT22;23050;51.776;22.638;2023-04-03T04:59:23;0.90;40.30
37158;DHT22;23050;51.776;22.638;2023-04-03T05:01:49;1.00;33.00
37158;DHT22;23050;51.776;22.638;2023-04-03T05:04:14;1.00;32.30
37158;DHT22;23050;51.776;22.638;2023-04-03T05:06:40;1.00;39.60
37158;DHT22;23050;51.776;22.638;2023-04-03T05:09:09;0.90;31.20
37158;DHT22;23050;51.776;22.638;2023-04-03T05:11:35;0.90;30.30
37158;DHT22;23050;51.776;22.638;2023-04-03T05:14:01;1.00;38.30
37158;DHT22;23050;51.776;22.638;2023-04-03T05:16:26;0.90;28.40
37158;DHT22;23050;51.776;22.638;2023-04-03T05:18:52;1.00;31.10
37158;DHT22;23050;51.776;22.638;2023-04-03T05:21:17;1.00;27.90
37158;DHT22;23050;51.776;22.638;2023-04-03T05:23:48;1.00;31.50
37158;DHT22;23050;51.776;22.638;2023-04-03T05:26:13;1.10;33.10
37158;DHT22;23050;51.776;22.638;2023-04-03T05:28:39;1.20;30.00
37158;DHT22;23050;51.776;22.638;2023-04-03T05:31:04;1.30;18.20
37158;DHT22;23050;51.776;22.638;2023-04-03T05:33:30;1.50;12.00
37158;DHT22;23050;51.776;22.638;2023-04-03T05:35:55;1.60;11.30
37158;DHT22;23050;51.776;22.638;2023-04-03T05:38:21;1.60;5.30
37158;DHT22;23050;51.776;22.638;2023-04-03T05:40:46;1.70;1.00
37158;DHT22;23050;51.776;22.638;2023-04-03T05:43:12;2.10;1.00
37158;DHT22;23050;51.776;22.638;2023-04-03T05:45:37;2.60;1.00
37158;DHT22;23050;51.776;22.638;2023-04-03T05:48:03;2.80;1.00
37158;DHT22;23050;51.776;22.638;2023-04-03T05:50:28;2.90;1.00
37158;DHT22;23050;51.776;22.638;2023-04-03T05:52:56;2.90;1.00
37158;DHT22;23050;51.776;22.638;2023-04-03T05:55:22;3.10;1.00
37158;DHT22;23050;51.776;22.638;2023-04-03T05:57:47;3.40;1.00
37158;DHT22;23050;51.776;22.638;2023-04-03T06:00:13;4.20;1.00
37158;DHT22;23050;51.776;22.638;2023-04-03T06:02:40;4.80;1.00
37158;DHT22;23050;51.776;22.638;2023-04-03T06:05:09;5.50;1.00
37158;DHT22;23050;51.776;22.638;2023-04-03T06:07:36;6.20;1.00
37158;DHT22;23050;51.776;22.638;2023-04-03T06:10:02;6.90;1.00
37158;DHT22;23050;51.776;22.638;2023-04-03T06:12:28;7.20;1.00
37158;DHT22;23050;51.776;22.638;2023-04-03T06:14:55;8.10;1.00
37158;DHT22;23050;51.776;22.638;2023-04-03T06:17:20;8.90;1.00
37158;DHT22;23050;51.776;22.638;2023-04-03T06:19:46;9.70;1.00
37158;DHT22;23050;51.776;22.638;2023-04-03T06:22:12;10.10;1.00
37158;DHT22;23050;51.776;22.638;2023-04-03T06:24:38;10.30;1.00
37158;DHT22;23050;51.776;22.638;2023-04-03T06:27:03;10.00;1.00
37158;DHT22;23050;51.776;22.638;2023-04-03T06:29:30;9.60;1.00
37158;DHT22;23050;51.776;22.638;2023-04-03T06:31:56;9.80;1.00
37158;DHT22;23050;51.776;22.638;2023-04-03T06:34:22;10.00;1.00
37158;DHT22;23050;51.776;22.638;2023-04-03T06:36:48;10.00;1.00
37158;DHT22;23050;51.776;22.638;2023-04-03T06:39:17;10.20;1.00
37158;DHT22;23050;51.776;22.638;2023-04-03T06:41:43;10.20;1.00
37158;DHT22;23050;51.776;22.638;2023-04-03T06:44:09;11.00;1.00
37158;DHT22;23050;51.776;22.638;2023-04-03T06:46:36;11.80;1.00
37158;DHT22;23050;51.776;22.638;2023-04-03T06:49:02;12.80;1.00
37158;DHT22;23050;51.776;22.638;2023-04-03T06:51:29;12.80;1.00
37158;DHT22;23050;51.776;22.638;2023-04-03T06:53:55;12.50;1.00
37158;DHT22;23050;51.776;22.638;2023-04-03T06:56:21;12.40;1.00
37158;DHT22;23050;51.776;22.638;2023-04-03T06:58:47;11.20;1.00
37158;DHT22;23050;51.776;22.638;2023-04-03T07:01:13;10.00;1.00
37158;DHT22;23050;51.776;22.638;2023-04-03T07:03:39;8.90;1.00
37158;DHT22;23050;51.776;22.638;2023-04-03T07:06:05;7.80;1.00
37158;DHT22;23050;51.776;22.638;2023-04-03T07:08:32;7.20;1.00
37158;DHT22;23050;51.776;22.638;2023-04-03T07:10:58;6.90;1.00
37158;DHT22;23050;51.776;22.638;2023-04-03T07:13:23;6.60;1.00
37158;DHT22;23050;51.776;22.638;2023-04-03T07:15:49;7.30;1.00
37158;DHT22;23050;51.776;22.638;2023-04-03T07:18:15;8.50;1.00
37158;DHT22;23050;51.776;22.638;2023-04-03T07:20:42;9.40;1.00
37158;DHT22;23050;51.776;22.638;2023-04-03T07:23:08;10.70;1.00
37158;DHT22;23050;51.776;22.638;2023-04-03T07:25:33;11.50;1.00
37158;DHT22;23050;51.776;22.638;2023-04-03T07:27:59;12.10;1.00
37158;DHT22;23050;51.776;22.638;2023-04-03T07:30:24;12.10;1.00
37158;DHT22;23050;51.776;22.638;2023-04-03T07:32:50;12.00;1.00
37158;DHT22;23050;51.776;22.638;2023-04-03T07:35:16;12.40;1.00
37158;DHT22;23050;51.776;22.638;2023-04-03T07:37:42;13.40;1.00
37158;DHT22;23050;51.776;22.638;2023-04-03T07:40:08;14.80;1.00
37158;DHT22;23050;51.776;22.638;2023-04-03T07:42:34;15.10;1.00
37158;DHT22;23050;51.776;22.638;2023-04-03T07:45:00;13.20;1.00
37158;DHT22;23050;51.776;22.638;2023-04-03T07:47:26;11.70;1.00
37158;DHT22;23050;51.776;22.638;2023-04-03T07:49:51;11.10;1.00
37158;DHT22;23050;51.776;22.638;2023-04-03T07:52:17;11.00;1.00
37158;DHT22;23050;51.776;22.638;2023-04-03T07:54:42;10.30;1.00
37158;DHT22;23050;51.776;22.638;2023-04-03T07:57:08;9.90;1.00
37158;DHT22;23050;51.776;22.638;2023-04-03T07:59:33;9.30;1.00
37158;DHT22;23050;51.776;22.638;2023-04-03T08:01:59;9.00;1.00
37158;DHT22;23050;51.776;22.638;2023-04-03T08:04:24;8.50;1.00
37158;DHT22;23050;51.776;22.638;2023-04-03T08:06:51;8.30;1.00
37158;DHT22;23050;51.776;22.638;2023-04-03T08:09:17;8.00;1.00
37158;DHT22;23050;51.776;22.638;2023-04-03T08:11:42;7.30;1.00
37158;DHT22;23050;51.776;22.638;2023-04-03T08:14:08;7.20;1.00
37158;DHT22;23050;51.776;22.638;2023-04-03T08:16:36;7.10;1.00
37158;DHT22;23050;51.776;22.638;2023-04-03T08:19:01;7.10;1.00
37158;DHT22;23050;51.776;22.638;2023-04-03T08:21:27;6.40;1.00
37158;DHT22;23050;51.776;22.638;2023-04-03T08:23:52;6.20;1.00
37158;DHT22;23050;51.776;22.638;2023-04-03T08:26:19;6.60;1.00
37158;DHT22;23050;51.776;22.638;2023-04-03T08:28:46;6.50;1.00
37158;DHT22;23050;51.776;22.638;2023-04-03T08:31:13;6.40;1.00
37158;DHT22;23050;51.776;22.638;2023-04-03T08:33:40;6.20;1.00
37158;DHT22;23050;51.776;22.638;2023-04-03T08:36:06;6.10;1.00
37158;DHT22;23050;51.776;22.638;2023-04-03T08:38:32;6.10;1.00
37158;DHT22;23050;51.776;22.638;2023-04-03T08:41:02;5.90;1.00
37158;DHT22;23050;51.776;22.638;2023-04-03T08:46:22;5.60;1.00
37158;DHT22;23050;51.776;22.638;2023-04-03T08:48:49;5.50;1.00
37158;DHT22;23050;51.776;22.638;2023-04-03T08:51:17;5.70;1.00
37158;DHT22;23050;51.776;22.638;2023-04-03T08:53:45;5.80;1.00
37158;DHT22;23050;51.776;22.638;2023-04-03T08:56:11;5.90;1.00
37158;DHT22;23050;51.776;22.638;2023-04-03T08:58:44;6.00;1.00
37158;DHT22;23050;51.776;22.638;2023-04-03T09:01:19;6.00;1.00
37158;DHT22;23050;51.776;22.638;2023-04-03T09:03:45;5.90;1.00
37158;DHT22;23050;51.776;22.638;2023-04-03T09:06:12;6.00;1.00
37158;DHT22;23050;51.776;22.638;2023-04-03T09:08:46;5.90;1.00
37158;DHT22;23050;51.776;22.638;2023-04-03T09:11:27;6.00;1.00
37158;DHT22;23050;51.776;22.638;2023-04-03T09:16:56;6.40;1.00
37158;DHT22;23050;51.776;22.638;2023-04-03T09:19:28;6.40;1.00
37158;DHT22;23050;51.776;22.638;2023-04-03T09:24:40;6.40;1.00
37158;DHT22;23050;51.776;22.638;2023-04-03T09:27:10;6.20;1.00
37158;DHT22;23050;51.776;22.638;2023-04-03T09:29:39;6.10;1.00
37158;DHT22;23050;51.776;22.638;2023-04-03T09:32:19;6.00;1.00
37158;DHT22;23050;51.776;22.638;2023-04-03T09:34:44;6.00;1.00
37158;DHT22;23050;51.776;22.638;2023-04-03T09:37:10;5.80;1.00
37158;DHT22;23050;51.776;22.638;2023-04-03T09:39:51;5.80;1.00
37158;DHT22;23050;51.776;22.638;2023-04-03T09:42:22;6.00;1.00
37158;DHT22;23050;51.776;22.638;2023-04-03T09:44:54;6.20;1.00
37158;DHT22;23050;51.776;22.638;2023-04-03T09:47:33;6.40;1.00
37158;DHT22;23050;51.776;22.638;2023-04-03T09:52:54;7.00;1.00
37158;DHT22;23050;51.776;22.638;2023-04-03T09:55:26;7.10;1.00
37158;DHT22;23050;51.776;22.638;2023-04-03T09:57:58;7.40;1.00
37158;DHT22;23050;51.776;22.638;2023-04-03T10:00:41;7.60;1.00
37158;DHT22;23050;51.776;22.638;2023-04-03T10:03:40;7.30;1.00
37158;DHT22;23050;51.776;22.638;2023-04-03T10:06:01;7.80;1.00
37158;DHT22;23050;51.776;22.638;2023-04-03T10:08:33;8.00;1.00
37158;DHT22;23050;51.776;22.638;2023-04-03T10:11:06;8.20;1.00
37158;DHT22;23050;51.776;22.638;2023-04-03T10:13:32;8.20;1.00
37158;DHT22;23050;51.776;22.638;2023-04-03T10:21:06;7.30;1.00
37158;DHT22;23050;51.776;22.638;2023-04-03T10:23:39;7.00;1.00
37158;DHT22;23050;51.776;22.638;2023-04-03T10:31:29;6.90;1.00
37158;DHT22;23050;51.776;22.638;2023-04-03T10:34:05;6.80;1.00
37158;DHT22;23050;51.776;22.638;2023-04-03T10:36:36;6.90;1.00
37158;DHT22;23050;51.776;22.638;2023-04-03T10:46:47;7.20;1.00
37158;DHT22;23050;51.776;22.638;2023-04-03T10:49:19;7.30;1.00
37158;DHT22;23050;51.776;22.638;2023-04-03T10:51:48;7.40;1.00
37158;DHT22;23050;51.776;22.638;2023-04-03T10:56:52;7.60;1.00
37158;DHT22;23050;51.776;22.638;2023-04-03T10:59:26;7.60;1.00
37158;DHT22;23050;51.776;22.638;2023-04-03T11:01:54;7.60;1.00
37158;DHT22;23050;51.776;22.638;2023-04-03T11:04:20;7.50;1.00
37158;DHT22;23050;51.776;22.638;2023-04-03T11:06:48;7.40;1.00
37158;DHT22;23050;51.776;22.638;2023-04-03T11:11:43;7.00;1.00
37158;DHT22;23050;51.776;22.638;2023-04-03T11:14:09;6.80;1.00
37158;DHT22;23050;51.776;22.638;2023-04-03T11:16:40;6.80;1.00
37158;DHT22;23050;51.776;22.638;2023-04-03T11:21:56;7.00;1.00
37158;DHT22;23050;51.776;22.638;2023-04-03T11:24:26;7.10;1.00
37158;DHT22;23050;51.776;22.638;2023-04-03T11:26:52;7.00;1.00
37158;DHT22;23050;51.776;22.638;2023-04-03T11:29:20;7.10;1.00
37158;DHT22;23050;51.776;22.638;2023-04-03T11:32:01;7.00;1.00
37158;DHT22;23050;51.776;22.638;2023-04-03T11:36:59;7.30;1.00
37158;DHT22;23050;51.776;22.638;2023-04-03T11:39:28;7.60;1.00
37158;DHT22;23050;51.776;22.638;2023-04-03T11:41:55;7.80;1.00
37158;DHT22;23050;51.776;22.638;2023-04-03T11:44:32;7.90;1.00
37158;DHT22;23050;51.776;22.638;2023-04-03T11:46:59;8.30;1.00
37158;DHT22;23050;51.776;22.638;2023-04-03T11:52:10;8.90;1.00
37158;DHT22;23050;51.776;22.638;2023-04-03T11:54:43;9.00;1.00
37158;DHT22;23050;51.776;22.638;2023-04-03T11:59:53;8.70;1.00
37158;DHT22;23050;51.776;22.638;2023-04-03T12:02:35;8.60;1.00
37158;DHT22;23050;51.776;22.638;2023-04-03T12:08:10;8.90;1.00
37158;DHT22;23050;51.776;22.638;2023-04-03T12:10:31;9.10;1.00
37158;DHT22;23050;51.776;22.638;2023-04-03T12:12:57;9.20;1.00
37158;DHT22;23050;51.776;22.638;2023-04-03T12:15:26;9.60;1.00
37158;DHT22;23050;51.776;22.638;2023-04-03T12:17:52;10.30;1.00
37158;DHT22;23050;51.776;22.638;2023-04-03T12:23:23;10.00;1.00
37158;DHT22;23050;51.776;22.638;2023-04-03T12:25:49;9.30;1.00
37158;DHT22;23050;51.776;22.638;2023-04-03T12:28:15;9.10;1.00
37158;DHT22;23050;51.776;22.638;2023-04-03T12:30:41;8.80;1.00
37158;DHT22;23050;51.776;22.638;2023-04-03T12:35:36;8.40;1.00
37158;DHT22;23050;51.776;22.638;2023-04-03T12:45:38;8.40;1.00
37158;DHT22;23050;51.776;22.638;2023-04-03T12:48:06;8.30;1.00
37158;DHT22;23050;51.776;22.638;2023-04-03T12:50:37;8.40;1.00
37158;DHT22;23050;51.776;22.638;2023-04-03T12:53:19;8.20;1.00
37158;DHT22;23050;51.776;22.638;2023-04-03T12:55:44;8.00;1.00
37158;DHT22;23050;51.776;22.638;2023-04-03T12:58:17;7.70;1.00
37158;DHT22;23050;51.776;22.638;2023-04-03T13:00:46;7.50;1.00
37158;DHT22;23050;51.776;22.638;2023-04-03T13:03:32;7.30;1.00
37158;DHT22;23050;51.776;22.638;2023-04-03T13:05:59;7.00;1.00
37158;DHT22;23050;51.776;22.638;2023-04-03T13:08:24;6.90;1.00
37158;DHT22;23050;51.776;22.638;2023-04-03T13:11:04;6.80;1.00
37158;DHT22;23050;51.776;22.638;2023-04-03T13:13:31;6.50;1.00
37158;DHT22;23050;51.776;22.638;2023-04-03T13:15:56;6.50;1.00
37158;DHT22;23050;51.776;22.638;2023-04-03T13:20:48;6.70;1.00
37158;DHT22;23050;51.776;22.638;2023-04-03T13:23:13;6.70;1.00
37158;DHT22;23050;51.776;22.638;2023-04-03T13:25:43;6.70;1.00
37158;DHT22;23050;51.776;22.638;2023-04-03T13:28:10;6.80;1.00
37158;DHT22;23050;51.776;22.638;2023-04-03T13:30:37;6.80;1.00
37158;DHT22;23050;51.776;22.638;2023-04-03T13:33:04;7.10;1.00
37158;DHT22;23050;51.776;22.638;2023-04-03T13:35:35;7.00;1.00
37158;DHT22;23050;51.776;22.638;2023-04-03T13:38:06;7.30;1.00
37158;DHT22;23050;51.776;22.638;2023-04-03T13:40:32;7.60;1.00
37158;DHT22;23050;51.776;22.638;2023-04-03T13:42:58;7.70;1.00
37158;DHT22;23050;51.776;22.638;2023-04-03T13:45:25;7.90;1.00
37158;DHT22;23050;51.776;22.638;2023-04-03T13:48:39;7.90;1.00
37158;DHT22;23050;51.776;22.638;2023-04-03T13:53:16;7.90;1.00
37158;DHT22;23050;51.776;22.638;2023-04-03T13:55:53;7.60;1.00
37158;DHT22;23050;51.776;22.638;2023-04-03T13:58:23;7.20;1.00
37158;DHT22;23050;51.776;22.638;2023-04-03T14:00:50;6.90;1.00
37158;DHT22;23050;51.776;22.638;2023-04-03T14:03:24;6.70;1.00
37158;DHT22;23050;51.776;22.638;2023-04-03T14:05:50;6.60;1.00
37158;DHT22;23050;51.776;22.638;2023-04-03T14:08:15;6.40;1.00
37158;DHT22;23050;51.776;22.638;2023-04-03T14:10:41;6.40;1.00
37158;DHT22;23050;51.776;22.638;2023-04-03T14:13:09;6.30;1.00
37158;DHT22;23050;51.776;22.638;2023-04-03T14:15:35;6.20;1.00
37158;DHT22;23050;51.776;22.638;2023-04-03T14:18:01;6.30;1.00
37158;DHT22;23050;51.776;22.638;2023-04-03T14:20:33;6.20;1.00
37158;DHT22;23050;51.776;22.638;2023-04-03T14:22:59;6.10;1.00
37158;DHT22;23050;51.776;22.638;2023-04-03T14:25:24;6.00;1.00
37158;DHT22;23050;51.776;22.638;2023-04-03T14:27:51;5.90;1.00
37158;DHT22;23050;51.776;22.638;2023-04-03T14:30:26;6.00;1.00
37158;DHT22;23050;51.776;22.638;2023-04-03T14:32:52;6.10;1.00
37158;DHT22;23050;51.776;22.638;2023-04-03T14:35:18;6.10;1.00
37158;DHT22;23050;51.776;22.638;2023-04-03T14:37:44;6.10;1.00
37158;DHT22;23050;51.776;22.638;2023-04-03T14:40:11;6.00;1.00
37158;DHT22;23050;51.776;22.638;2023-04-03T14:42:38;6.00;1.00
37158;DHT22;23050;51.776;22.638;2023-04-03T14:45:06;6.00;1.00
37158;DHT22;23050;51.776;22.638;2023-04-03T14:47:32;6.00;1.00
37158;DHT22;23050;51.776;22.638;2023-04-03T14:49:59;6.00;1.00
37158;DHT22;23050;51.776;22.638;2023-04-03T14:52:26;6.10;1.00
37158;DHT22;23050;51.776;22.638;2023-04-03T14:54:52;6.20;1.00
37158;DHT22;23050;51.776;22.638;2023-04-03T14:57:18;6.20;1.00
37158;DHT22;23050;51.776;22.638;2023-04-03T14:59:44;6.20;1.00
37158;DHT22;23050;51.776;22.638;2023-04-03T15:04:47;5.80;1.00
37158;DHT22;23050;51.776;22.638;2023-04-03T15:07:12;5.80;1.00
37158;DHT22;23050;51.776;22.638;2023-04-03T15:09:38;5.90;1.00
37158;DHT22;23050;51.776;22.638;2023-04-03T15:12:03;6.00;1.00
37158;DHT22;23050;51.776;22.638;2023-04-03T15:14:29;6.00;1.00
37158;DHT22;23050;51.776;22.638;2023-04-03T15:16:54;6.10;1.00
37158;DHT22;23050;51.776;22.638;2023-04-03T15:19:20;6.20;1.00
37158;DHT22;23050;51.776;22.638;2023-04-03T15:21:45;6.10;1.00
37158;DHT22;23050;51.776;22.638;2023-04-03T15:24:10;6.00;1.00
37158;DHT22;23050;51.776;22.638;2023-04-03T15:26:36;6.00;1.00
37158;DHT22;23050;51.776;22.638;2023-04-03T15:29:03;5.80;1.00
37158;DHT22;23050;51.776;22.638;2023-04-03T15:31:28;5.70;1.00
37158;DHT22;23050;51.776;22.638;2023-04-03T15:33:54;5.60;1.00
37158;DHT22;23050;51.776;22.638;2023-04-03T15:36:19;5.50;1.00
37158;DHT22;23050;51.776;22.638;2023-04-03T15:38:45;5.50;1.00
37158;DHT22;23050;51.776;22.638;2023-04-03T15:41:10;5.40;1.00
37158;DHT22;23050;51.776;22.638;2023-04-03T15:43:36;5.40;1.00
37158;DHT22;23050;51.776;22.638;2023-04-03T15:46:01;5.40;1.00
37158;DHT22;23050;51.776;22.638;2023-04-03T15:48:27;5.30;1.00
37158;DHT22;23050;51.776;22.638;2023-04-03T15:50:53;5.30;1.00
37158;DHT22;23050;51.776;22.638;2023-04-03T15:53:19;5.20;1.00
37158;DHT22;23050;51.776;22.638;2023-04-03T15:55:44;5.10;1.00
37158;DHT22;23050;51.776;22.638;2023-04-03T15:58:10;5.10;1.00
37158;DHT22;23050;51.776;22.638;2023-04-03T16:00:36;5.00;1.00
37158;DHT22;23050;51.776;22.638;2023-04-03T16:03:04;5.00;1.00
37158;DHT22;23050;51.776;22.638;2023-04-03T16:05:30;4.90;1.00
37158;DHT22;23050;51.776;22.638;2023-04-03T16:07:56;4.80;1.00
37158;DHT22;23050;51.776;22.638;2023-04-03T16:10:23;4.80;1.00
37158;DHT22;23050;51.776;22.638;2023-04-03T16:12:48;4.80;1.00
37158;DHT22;23050;51.776;22.638;2023-04-03T16:15:14;4.70;1.00
37158;DHT22;23050;51.776;22.638;2023-04-03T16:17:40;4.60;1.00
37158;DHT22;23050;51.776;22.638;2023-04-03T16:20:08;4.60;1.00
37158;DHT22;23050;51.776;22.638;2023-04-03T16:22:35;4.60;1.00
37158;DHT22;23050;51.776;22.638;2023-04-03T16:25:00;4.50;1.00
37158;DHT22;23050;51.776;22.638;2023-04-03T16:27:26;4.40;1.00
37158;DHT22;23050;51.776;22.638;2023-04-03T16:29:55;4.40;1.00
37158;DHT22;23050;51.776;22.638;2023-04-03T16:32:21;4.40;1.00
37158;DHT22;23050;51.776;22.638;2023-04-03T16:34:47;4.40;1.00
37158;DHT22;23050;51.776;22.638;2023-04-03T16:37:13;4.40;1.00
37158;DHT22;23050;51.776;22.638;2023-04-03T16:39:38;4.30;1.00
37158;DHT22;23050;51.776;22.638;2023-04-03T16:42:04;4.20;1.00
37158;DHT22;23050;51.776;22.638;2023-04-03T16:44:29;4.30;1.00
37158;DHT22;23050;51.776;22.638;2023-04-03T16:46:55;4.10;1.00
37158;DHT22;23050;51.776;22.638;2023-04-03T16:49:20;4.10;1.00
37158;DHT22;23050;51.776;22.638;2023-04-03T16:51:47;4.00;1.00
37158;DHT22;23050;51.776;22.638;2023-04-03T16:54:13;4.00;1.00
37158;DHT22;23050;51.776;22.638;2023-04-03T16:56:39;4.00;1.00